Time;durP1;ratioP1;P1;durP2;ratioP2;P2;SDS_P1;SDS_P2;PMS_P1;PMS_P2;Temp;Humidity;BMP_temperature;BMP_pressure;BME280_temperature;BME280_humidity;BME280_pressure;Samples;Min_cycle;Max_cycle;Signal;HPM_P1;HPM_P2
2022/03/30 00:02:11;;;;;;;20.65;10.82;;;;;;;12.86;46.78;100698.47;5059015;28;20079;-61
2022/03/30 00:04:39;;;;;;;30.58;12.23;;;;;;;12.86;46.73;100693.91;5060698;28;20049;-61
2022/03/30 00:07:07;;;;;;;26.80;12.05;;;;;;;12.84;46.53;100693.31;5051162;28;20053;-61
2022/03/30 00:09:35;;;;;;;22.25;11.50;;;;;;;12.83;46.76;100689.00;5049851;28;20471;-63
2022/03/30 00:12:04;;;;;;;19.50;11.05;;;;;;;12.82;46.69;100695.44;5056780;28;20110;-62
2022/03/30 00:14:32;;;;;;;22.05;11.60;;;;;;;12.81;46.63;100683.03;5054212;28;20045;-60
2022/03/30 00:17:00;;;;;;;24.15;11.80;;;;;;;12.80;46.72;100686.78;5061634;28;20080;-60
2022/03/30 00:19:28;;;;;;;28.33;11.52;;;;;;;12.80;46.70;100678.69;5050032;28;20383;-61
2022/03/30 00:21:56;;;;;;;25.70;11.00;;;;;;;12.79;46.97;100687.84;5059511;28;20045;-62
2022/03/30 00:24:26;;;;;;;23.67;11.55;;;;;;;12.79;46.72;100685.13;5064201;28;20045;-61
2022/03/30 00:26:54;;;;;;;22.88;12.57;;;;;;;12.78;46.99;100680.81;5061372;28;20092;-61
2022/03/30 00:29:23;;;;;;;24.15;11.68;;;;;;;12.75;46.83;100678.59;5058091;28;20174;-61
2022/03/30 00:31:52;;;;;;;19.45;11.20;;;;;;;12.75;46.67;100683.16;5059263;28;20052;-60
2022/03/30 00:34:19;;;;;;;21.40;10.98;;;;;;;12.75;46.93;100675.06;5056308;28;20462;-60
2022/03/30 00:36:47;;;;;;;20.90;10.10;;;;;;;12.74;46.81;100674.25;5054730;28;20072;-61
2022/03/30 00:39:16;;;;;;;18.15;10.85;;;;;;;12.74;46.91;100673.44;5060862;28;20232;-61
2022/03/30 00:41:44;;;;;;;22.75;11.40;;;;;;;12.74;46.70;100676.13;5068897;28;20485;-63
2022/03/30 00:44:14;;;;;;;20.67;11.35;;;;;;;12.72;46.75;100676.38;5068175;28;20069;-61
2022/03/30 00:46:45;;;;;;;20.75;10.65;;;;;;;12.71;46.69;100672.03;5056907;28;20053;-61
2022/03/30 00:49:13;;;;;;;25.42;11.93;;;;;;;12.70;46.81;100675.78;5070385;28;20068;-61
2022/03/30 00:51:41;;;;;;;20.48;10.73;;;;;;;12.67;46.98;100671.69;5055726;28;20052;-61
2022/03/30 00:54:09;;;;;;;25.23;12.25;;;;;;;12.64;47.12;100669.47;5063400;28;20087;-61
2022/03/30 00:56:40;;;;;;;22.00;12.13;;;;;;;12.60;46.82;100656.72;5064389;28;20076;-61
2022/03/30 00:59:08;;;;;;;29.25;12.23;;;;;;;12.63;46.99;100657.06;5056097;28;20056;-59
2022/03/30 01:01:35;;;;;;;24.45;12.23;;;;;;;12.63;47.15;100654.38;5062555;28;20048;-61
2022/03/30 01:04:07;;;;;;;19.80;11.25;;;;;;;12.62;47.06;100646.50;5064407;28;20072;-61
2022/03/30 01:06:35;;;;;;;23.35;13.25;;;;;;;12.61;47.01;100651.09;5066806;28;20059;-61
2022/03/30 01:09:03;;;;;;;21.83;12.07;;;;;;;12.58;47.17;100648.88;5064048;28;20068;-62
2022/03/30 01:11:31;;;;;;;27.15;11.75;;;;;;;12.58;47.23;100656.97;5062729;28;20130;-61
2022/03/30 01:13:58;;;;;;;22.65;11.60;;;;;;;12.56;47.08;100648.28;5058073;28;20495;-59
2022/03/30 01:16:31;;;;;;;28.10;11.55;;;;;;;12.52;47.15;100657.91;5051995;28;20053;-61
2022/03/30 01:19:05;;;;;;;28.98;12.95;;;;;;;12.48;47.40;100655.94;5062143;28;20040;-61
2022/03/30 01:21:35;;;;;;;21.20;11.68;;;;;;;12.44;47.11;100647.50;5058104;28;20059;-61
2022/03/30 01:24:03;;;;;;;24.92;11.85;;;;;;;12.45;47.50;100648.31;5063463;28;20064;-61
2022/03/30 01:26:31;;;;;;;27.70;11.82;;;;;;;12.45;47.17;100642.94;5061555;28;20056;-63
2022/03/30 01:28:59;;;;;;;22.02;11.68;;;;;;;12.35;47.46;100625.50;5059870;28;20060;-61
2022/03/30 01:34:13;;;;;;;25.02;12.30;;;;;;;12.44;47.23;100641.31;5064156;28;20098;-63
2022/03/30 01:36:42;;;;;;;23.08;12.43;;;;;;;12.41;47.39;100636.38;5061957;28;20053;-61
2022/03/30 01:39:12;;;;;;;23.27;12.05;;;;;;;12.38;47.38;100633.13;5063976;28;20068;-61
2022/03/30 01:41:40;;;;;;;21.55;11.88;;;;;;;12.35;47.41;100635.47;5056035;28;20045;-60
2022/03/30 01:44:07;;;;;;;25.73;11.32;;;;;;;12.31;47.70;100637.00;5051012;28;20050;-61
2022/03/30 01:46:38;;;;;;;22.77;13.07;;;;;;;12.29;47.84;100620.25;5055640;28;20179;-61
2022/03/30 01:49:06;;;;;;;25.55;13.43;;;;;;;12.27;47.53;100627.75;5060733;28;20144;-61
2022/03/30 01:51:34;;;;;;;21.05;11.75;;;;;;;12.25;47.81;100627.16;5049850;28;20045;-60
2022/03/30 01:54:03;;;;;;;30.70;12.55;;;;;;;12.26;47.60;100626.94;5058283;28;20084;-60
2022/03/30 01:56:30;;;;;;;27.73;12.82;;;;;;;12.25;47.49;100628.00;5072843;28;20069;-61
2022/03/30 01:58:58;;;;;;;22.85;13.18;;;;;;;12.24;47.79;100620.97;5063038;28;20093;-61
2022/03/30 02:01:26;;;;;;;22.33;11.73;;;;;;;12.24;47.44;100618.28;5062436;28;20087;-61
2022/03/30 02:03:56;;;;;;;20.75;11.90;;;;;;;12.22;47.69;100619.56;5062050;28;20079;-62
2022/03/30 02:06:25;;;;;;;25.42;13.80;;;;;;;12.20;47.74;100624.38;5063224;28;20072;-62
2022/03/30 02:08:53;;;;;;;24.13;11.85;;;;;;;12.18;47.55;100627.31;5061494;28;20056;-60
2022/03/30 02:11:22;;;;;;;23.90;13.02;;;;;;;12.15;47.69;100613.50;5064162;28;20080;-61
2022/03/30 02:13:50;;;;;;;30.10;13.70;;;;;;;12.13;47.75;100611.06;5058587;28;20128;-61
2022/03/30 02:16:17;;;;;;;25.45;12.13;;;;;;;12.12;47.65;100612.13;5054274;28;20052;-62
2022/03/30 02:18:45;;;;;;;24.08;13.23;;;;;;;12.12;47.75;100614.00;5057948;28;20063;-61
2022/03/30 02:21:13;;;;;;;24.80;13.20;;;;;;;12.10;47.86;100613.41;5060036;28;20065;-61
2022/03/30 02:23:41;;;;;;;26.33;12.23;;;;;;;12.07;47.55;100600.41;5060543;28;20049;-61
2022/03/30 02:26:09;;;;;;;32.20;12.85;;;;;;;12.04;47.64;100607.91;5054738;28;20045;-61
2022/03/30 02:28:38;;;;;;;25.13;13.82;;;;;;;12.02;47.65;100603.81;5062637;28;20056;-61
2022/03/30 02:31:06;;;;;;;27.20;13.77;;;;;;;11.98;47.69;100595.41;5062229;28;20206;-61
2022/03/30 02:33:34;;;;;;;22.08;13.25;;;;;;;11.97;47.61;100595.63;5062504;28;20052;-61
2022/03/30 02:36:01;;;;;;;28.38;12.93;;;;;;;11.97;47.87;100599.16;5063286;28;20176;-61
2022/03/30 02:38:29;;;;;;;22.17;12.27;;;;;;;11.98;47.82;100592.72;5063811;28;20045;-61
2022/03/30 02:40:57;;;;;;;23.95;12.27;;;;;;;11.97;47.77;100576.78;5058515;28;20136;-61
2022/03/30 02:43:24;;;;;;;27.80;13.00;;;;;;;11.98;47.76;100578.44;5058519;28;20096;-61
2022/03/30 02:45:54;;;;;;;25.83;12.75;;;;;;;11.94;47.73;100580.78;5057333;28;20104;-61
2022/03/30 02:48:28;;;;;;;26.25;13.38;;;;;;;11.93;47.80;100578.31;5059798;28;20072;-61
2022/03/30 02:50:57;;;;;;;27.40;13.35;;;;;;;11.89;47.53;100575.28;5061616;28;20147;-61
2022/03/30 02:53:26;;;;;;;23.25;12.63;;;;;;;11.88;47.63;100565.56;5070334;28;20064;-62
2022/03/30 02:55:53;;;;;;;31.85;12.35;;;;;;;11.87;47.63;100558.53;5061985;28;20048;-62
2022/03/30 02:58:21;;;;;;;25.80;12.43;;;;;;;11.88;47.52;100553.97;5061336;28;20456;-61
2022/03/30 03:00:49;;;;;;;27.58;12.07;;;;;;;11.87;47.65;100561.22;5059533;28;20072;-60
2022/03/30 03:03:18;;;;;;;25.75;11.98;;;;;;;11.87;47.55;100563.94;5058362;28;20053;-62
2022/03/30 03:05:46;;;;;;;23.67;12.85;;;;;;;11.87;47.54;100563.94;5057323;28;20053;-60
2022/03/30 03:08:14;;;;;;;24.20;12.35;;;;;;;11.84;47.53;100564.41;5052562;28;20096;-60
2022/03/30 03:10:44;;;;;;;28.08;13.20;;;;;;;11.82;47.64;100561.13;5057003;28;20085;-61
2022/03/30 03:13:13;;;;;;;29.25;12.52;;;;;;;11.81;47.78;100558.66;5059614;28;20087;-60
2022/03/30 03:15:41;;;;;;;27.05;13.02;;;;;;;11.77;47.78;100552.94;5063077;28;20072;-60
2022/03/30 03:18:10;;;;;;;26.25;13.00;;;;;;;11.76;47.85;100556.66;5062177;28;20044;-62
2022/03/30 03:20:42;;;;;;;25.45;13.15;;;;;;;11.73;47.69;100549.88;5061763;28;20049;-61
2022/03/30 03:23:11;;;;;;;26.88;12.77;;;;;;;11.74;47.65;100546.13;5058278;28;20068;-61
2022/03/30 03:25:40;;;;;;;25.05;12.43;;;;;;;11.72;47.67;100542.84;5061861;28;20159;-60
2022/03/30 03:28:09;;;;;;;22.27;12.30;;;;;;;11.70;47.72;100538.75;5060843;28;20064;-60
2022/03/30 03:30:38;;;;;;;24.55;13.27;;;;;;;11.69;47.72;100554.09;5057094;28;20076;-62
2022/03/30 03:33:06;;;;;;;23.15;12.30;;;;;;;11.68;47.64;100538.19;5060879;28;20080;-60
2022/03/30 03:35:35;;;;;;;23.55;12.77;;;;;;;11.67;47.76;100542.75;5061314;28;20049;-62
2022/03/30 03:38:05;;;;;;;32.55;13.52;;;;;;;11.67;48.30;100536.53;5050598;28;20080;-61
2022/03/30 03:40:33;;;;;;;30.73;14.32;;;;;;;11.65;47.72;100542.16;5060010;28;20563;-62
2022/03/30 03:43:02;;;;;;;25.60;13.65;;;;;;;11.63;47.52;100536.19;5060102;28;20068;-61
2022/03/30 03:45:30;;;;;;;23.73;11.77;;;;;;;11.62;47.69;100531.84;5060304;28;20045;-62
2022/03/30 03:47:58;;;;;;;21.60;12.95;;;;;;;11.61;47.79;100541.00;5061899;28;20140;-61
2022/03/30 03:50:26;;;;;;;23.08;12.88;;;;;;;11.60;47.82;100538.53;5059226;28;20052;-60
2022/03/30 03:52:53;;;;;;;27.70;12.93;;;;;;;11.57;47.89;100539.81;5056333;28;20081;-60
2022/03/30 03:55:23;;;;;;;29.90;14.13;;;;;;;11.55;47.79;100533.03;5061553;28;20055;-60
2022/03/30 03:57:50;;;;;;;33.35;16.48;;;;;;;11.54;47.99;100539.47;5064153;28;20052;-60
2022/03/30 04:00:19;;;;;;;26.63;13.75;;;;;;;11.50;47.89;100525.69;5053958;28;20083;-61
2022/03/30 04:02:47;;;;;;;29.95;14.52;;;;;;;11.48;47.94;100525.09;5067270;28;20085;-60
2022/03/30 04:05:15;;;;;;;21.33;12.88;;;;;;;11.52;47.86;100522.75;5058065;28;20044;-60
2022/03/30 04:07:43;;;;;;;32.25;14.90;;;;;;;11.52;47.62;100530.81;5058600;28;20562;-61
2022/03/30 04:10:11;;;;;;;24.20;14.35;;;;;;;11.54;47.87;100528.72;5061590;28;20075;-61
2022/03/30 04:12:40;;;;;;;26.08;13.18;;;;;;;11.51;47.85;100527.31;5053381;28;20195;-61
2022/03/30 04:15:09;;;;;;;25.30;13.60;;;;;;;11.52;47.84;100534.34;5063873;28;20052;-60
2022/03/30 04:17:43;;;;;;;27.73;14.18;;;;;;;11.51;47.74;100524.63;5065761;28;20064;-60
2022/03/30 04:20:12;;;;;;;28.23;15.00;;;;;;;11.49;47.79;100524.03;5064011;28;20120;-60
2022/03/30 04:22:40;;;;;;;29.42;14.07;;;;;;;11.49;47.93;100517.84;5064156;28;20087;-60
2022/03/30 04:25:09;;;;;;;27.90;14.13;;;;;;;11.47;47.77;100510.00;5065289;28;20079;-60
2022/03/30 04:27:36;;;;;;;26.30;14.02;;;;;;;11.48;47.74;100511.63;5066853;28;20076;-61
2022/03/30 04:30:07;;;;;;;28.65;14.07;;;;;;;11.49;47.90;100513.28;5063923;28;20077;-60
2022/03/30 04:32:34;;;;;;;25.83;13.95;;;;;;;11.47;47.84;100515.38;5057880;28;20037;-62
2022/03/30 04:35:02;;;;;;;29.67;15.25;;;;;;;11.46;47.74;100513.75;5059827;28;20053;-61
2022/03/30 04:37:30;;;;;;;23.45;13.60;;;;;;;11.45;47.84;100513.97;5063477;28;20132;-60
2022/03/30 04:39:57;;;;;;;26.42;13.57;;;;;;;11.44;47.80;100506.97;5063317;28;20045;-60
2022/03/30 04:42:25;;;;;;;28.95;15.60;;;;;;;11.40;47.98;100504.75;5061868;28;20045;-61
2022/03/30 04:44:53;;;;;;;26.67;14.38;;;;;;;11.38;47.81;100506.84;5064214;28;20141;-61
2022/03/30 04:47:22;;;;;;;29.33;14.50;;;;;;;11.35;47.91;100510.00;5063411;28;20120;-60
2022/03/30 04:49:50;;;;;;;26.33;14.13;;;;;;;11.33;48.12;100512.13;5064291;28;20060;-62
2022/03/30 04:52:18;;;;;;;25.70;14.48;;;;;;;11.21;48.30;100497.03;5057407;28;20072;-60
2022/03/30 04:54:46;;;;;;;23.63;13.02;;;;;;;11.29;48.15;100520.88;5061872;28;20105;-61
2022/03/30 04:57:14;;;;;;;31.40;14.75;;;;;;;11.27;48.34;100526.50;5065059;28;20045;-62
2022/03/30 04:59:44;;;;;;;25.92;13.10;;;;;;;11.27;48.01;100529.19;5069287;28;20068;-61
2022/03/30 05:02:12;;;;;;;34.60;14.55;;;;;;;11.22;48.07;100528.25;5059718;28;20129;-61
2022/03/30 05:04:41;;;;;;;30.23;13.95;;;;;;;11.20;48.26;100525.81;5067571;28;20056;-60
2022/03/30 05:07:09;;;;;;;29.65;14.35;;;;;;;11.23;48.03;100529.91;5059571;28;20045;-59
2022/03/30 05:09:36;;;;;;;29.52;14.80;;;;;;;11.18;48.34;100527.91;5071701;28;20526;-59
2022/03/30 05:12:05;;;;;;;24.52;13.27;;;;;;;11.17;48.14;100537.03;5063040;28;20045;-59
2022/03/30 05:14:33;;;;;;;26.88;13.75;;;;;;;11.18;48.47;100532.47;5063195;28;20091;-58
2022/03/30 05:17:01;;;;;;;27.80;13.82;;;;;;;11.16;48.28;100531.88;5060461;28;20077;-62
2022/03/30 05:19:29;;;;;;;28.80;14.27;;;;;;;11.16;47.93;100527.31;5061775;28;20048;-62
2022/03/30 05:21:58;;;;;;;26.02;13.50;;;;;;;11.17;48.13;100520.88;5062674;28;20060;-59
2022/03/30 05:24:26;;;;;;;24.95;13.23;;;;;;;11.19;48.20;100517.97;5062952;28;20057;-61
2022/03/30 05:26:54;;;;;;;27.92;13.98;;;;;;;11.17;48.26;100522.75;5062304;28;20053;-61
2022/03/30 05:29:22;;;;;;;29.35;15.02;;;;;;;11.13;48.26;100519.72;5059409;28;20055;-63
2022/03/30 05:31:50;;;;;;;26.88;13.45;;;;;;;11.11;48.31;100516.44;5062953;28;20113;-63
2022/03/30 05:34:38;;;;;;;25.70;13.07;;;;;;;11.07;48.09;100518.78;5063859;28;20068;-62
2022/03/30 05:37:07;;;;;;;22.52;12.57;;;;;;;11.06;48.36;100519.84;5064737;28;20071;-63
2022/03/30 05:39:35;;;;;;;24.52;13.98;;;;;;;11.03;48.04;100512.22;5066421;28;20076;-63
2022/03/30 05:42:04;;;;;;;23.70;12.93;;;;;;;11.05;48.24;100514.69;5052512;28;20526;-63
2022/03/30 05:44:32;;;;;;;23.65;13.05;;;;;;;11.06;48.40;100517.16;5059471;28;20073;-63
2022/03/30 05:46:59;;;;;;;28.73;13.82;;;;;;;11.05;48.37;100514.69;5060662;28;20060;-62
2022/03/30 05:49:27;;;;;;;27.17;13.63;;;;;;;11.02;48.44;100510.59;5062607;28;20076;-62
2022/03/30 05:51:55;;;;;;;26.48;13.93;;;;;;;11.01;48.25;100508.13;5063789;28;20053;-62
2022/03/30 05:54:24;;;;;;;25.13;13.52;;;;;;;10.99;48.41;100508.38;5062490;28;20120;-62
2022/03/30 05:57:01;;;;;;;29.88;13.68;;;;;;;10.97;48.43;100510.47;5062664;28;20494;-63
2022/03/30 05:59:30;;;;;;;25.13;13.18;;;;;;;10.95;48.23;100517.94;5061461;28;20100;-62
2022/03/30 06:01:58;;;;;;;31.25;14.40;;;;;;;10.95;48.42;100507.19;5062182;28;20049;-62
2022/03/30 06:04:26;;;;;;;27.08;13.82;;;;;;;10.92;48.54;100512.22;5077572;28;20374;-62
2022/03/30 06:06:54;;;;;;;24.85;14.05;;;;;;;10.92;48.27;100521.09;5052225;28;20080;-63
2022/03/30 06:09:27;;;;;;;30.80;14.05;;;;;;;10.88;48.55;100519.94;5055891;28;20045;-62
2022/03/30 06:12:08;;;;;;;25.25;13.23;;;;;;;10.87;48.15;100520.97;5061315;28;20063;-63
2022/03/30 06:14:36;;;;;;;30.92;14.65;;;;;;;10.89;48.49;100524.25;5064339;28;20236;-66
2022/03/30 06:17:05;;;;;;;27.27;13.80;;;;;;;10.86;48.53;100523.91;5075044;28;20178;-63
2022/03/30 06:19:33;;;;;;;29.38;13.63;;;;;;;10.85;48.57;100524.94;5062081;28;20074;-63
2022/03/30 06:22:01;;;;;;;28.50;14.05;;;;;;;10.83;48.75;100532.44;5063160;28;20135;-62
2022/03/30 06:24:30;;;;;;;29.48;14.50;;;;;;;10.85;48.29;100524.94;5062647;28;20049;-63
2022/03/30 06:26:58;;;;;;;21.63;12.93;;;;;;;10.86;48.67;100534.66;5063513;28;20076;-64
2022/03/30 06:29:26;;;;;;;28.67;13.93;;;;;;;10.85;48.43;100528.47;5062937;28;20053;-63
2022/03/30 06:31:53;;;;;;;27.73;14.05;;;;;;;10.87;48.33;100537.09;5052842;28;20089;-63
2022/03/30 06:34:21;;;;;;;31.70;16.60;;;;;;;10.88;48.51;100533.38;5056320;28;20041;-65
2022/03/30 06:36:49;;;;;;;28.15;13.32;;;;;;;10.90;48.50;100533.16;5055874;28;20065;-64
2022/03/30 06:39:17;;;;;;;25.20;14.00;;;;;;;10.90;48.25;100533.16;4705043;28;10000583;-64
2022/03/30 06:41:48;;;;;;;26.75;14.23;;;;;;;10.89;48.24;100539.56;5057908;28;20058;-63
2022/03/30 06:44:16;;;;;;;28.02;14.40;;;;;;;10.86;48.33;100538.16;5057617;28;20103;-64
2022/03/30 06:46:44;;;;;;;23.92;12.80;;;;;;;10.85;48.63;100536.53;5061786;28;20049;-65
2022/03/30 06:49:12;;;;;;;27.20;13.48;;;;;;;10.86;48.45;100532.78;5063530;28;20067;-64
2022/03/30 06:51:40;;;;;;;28.08;14.07;;;;;;;10.88;48.29;100532.56;5048432;28;20080;-63
2022/03/30 06:54:08;;;;;;;25.33;13.45;;;;;;;10.88;48.57;100536.06;5050734;28;20068;-64
2022/03/30 06:56:35;;;;;;;26.30;13.52;;;;;;;10.89;48.58;100535.00;5059559;28;20084;-65
2022/03/30 06:59:05;;;;;;;27.25;14.52;;;;;;;10.89;48.41;100532.31;5043179;28;20176;-64
2022/03/30 07:01:35;;;;;;;24.42;13.88;;;;;;;10.92;48.54;100539.09;5061427;28;20112;-65
2022/03/30 07:04:03;;;;;;;30.10;14.60;;;;;;;10.91;48.50;100535.59;5062772;28;20136;-66
2022/03/30 07:06:31;;;;;;;25.75;13.15;;;;;;;10.92;48.47;100529.16;5061268;28;20044;-65
2022/03/30 07:11:44;;;;;;;30.40;13.82;;;;;;;10.88;48.57;100521.81;5060947;28;20080;-64
2022/03/30 07:14:13;;;;;;;29.00;14.63;;;;;;;10.95;48.36;100527.88;5061811;28;20068;-64
2022/03/30 07:16:41;;;;;;;23.88;14.02;;;;;;;10.95;48.35;100526.03;5060876;28;20104;-64
2022/03/30 07:19:09;;;;;;;24.65;14.02;;;;;;;10.96;48.36;100535.72;5061816;28;20136;-66
2022/03/30 07:21:36;;;;;;;24.45;12.82;;;;;;;10.98;48.54;100525.56;5060162;28;20072;-65
2022/03/30 07:24:05;;;;;;;26.90;12.95;;;;;;;11.02;48.17;100526.72;5055673;28;20077;-64
2022/03/30 07:26:32;;;;;;;31.60;14.63;;;;;;;11.04;48.53;100527.31;5056162;28;20084;-63
2022/03/30 07:29:02;;;;;;;27.05;12.15;;;;;;;11.06;47.94;100527.91;5055285;28;20494;-64
2022/03/30 07:31:31;;;;;;;25.90;14.00;;;;;;;11.10;48.25;100520.19;5054063;28;20068;-65
2022/03/30 07:33:59;;;;;;;23.00;12.00;;;;;;;11.11;48.12;100516.44;5055133;28;20072;-66
2022/03/30 07:36:27;;;;;;;20.33;12.05;;;;;;;11.13;48.24;100518.91;5057343;28;20097;-67
2022/03/30 07:38:54;;;;;;;23.23;13.10;;;;;;;11.14;48.07;100517.84;5057501;28;20497;-69
2022/03/30 07:41:22;;;;;;;26.85;12.00;;;;;;;11.15;48.23;100514.09;5061131;28;20072;-67
2022/03/30 07:43:50;;;;;;;24.30;11.68;;;;;;;11.14;48.09;100515.97;5061915;28;20045;-66
2022/03/30 07:46:18;;;;;;;27.73;13.52;;;;;;;11.10;48.16;100514.81;5064462;28;20113;-67
2022/03/30 07:48:47;;;;;;;19.67;12.02;;;;;;;11.12;47.97;100517.25;5064750;28;20049;-68
2022/03/30 07:51:15;;;;;;;29.92;12.43;;;;;;;11.12;48.32;100517.25;5065496;28;20049;-67
2022/03/30 07:53:43;;;;;;;22.75;12.10;;;;;;;11.08;48.27;100517.72;5062300;28;20152;-68
2022/03/30 07:56:10;;;;;;;22.60;11.63;;;;;;;11.07;48.41;100524.16;5060698;28;20685;-68
2022/03/30 07:58:38;;;;;;;22.90;11.20;;;;;;;11.07;48.35;100526.84;5068506;28;20057;-66
2022/03/30 08:01:06;;;;;;;23.73;12.20;;;;;;;11.09;48.72;100523.94;5066012;28;20045;-67
2022/03/30 08:03:34;;;;;;;21.50;12.90;;;;;;;11.09;48.51;100515.84;5065810;28;20084;-67
2022/03/30 08:06:03;;;;;;;21.40;11.57;;;;;;;11.13;48.43;100510.84;5066167;28;20049;-69
2022/03/30 08:08:31;;;;;;;23.67;12.05;;;;;;;11.10;48.50;100517.50;5064177;28;20072;-70
2022/03/30 08:10:59;;;;;;;24.70;12.80;;;;;;;11.14;48.38;100518.66;5063941;28;20494;-68
2022/03/30 08:13:26;;;;;;;23.00;11.43;;;;;;;11.15;48.36;100504.16;5064300;28;20088;-67
2022/03/30 08:15:54;;;;;;;28.08;11.23;;;;;;;11.15;48.20;100509.53;5061937;28;20063;-66
2022/03/30 08:18:22;;;;;;;22.88;11.02;;;;;;;11.06;48.39;100500.19;5060348;28;20049;-66
2022/03/30 08:23:36;;;;;;;22.33;11.50;;;;;;;11.19;48.32;100512.59;5059872;28;20045;-67
2022/03/30 08:26:05;;;;;;;20.85;10.82;;;;;;;11.20;48.67;100514.22;5055408;28;20069;-66
2022/03/30 08:28:33;;;;;;;23.20;10.57;;;;;;;11.19;48.72;100521.47;5056114;28;20077;-66
2022/03/30 08:31:00;;;;;;;22.92;10.50;;;;;;;11.13;48.56;100516.22;5063311;28;20079;-66
2022/03/30 08:33:34;;;;;;;23.73;11.10;;;;;;;11.17;48.69;100526.28;5060797;28;20045;-66
2022/03/30 08:36:02;;;;;;;19.27;10.55;;;;;;;11.15;48.64;100522.19;5054433;28;20061;-67
2022/03/30 08:38:30;;;;;;;25.83;11.80;;;;;;;11.10;48.93;100517.50;5060644;28;20108;-67
2022/03/30 08:40:59;;;;;;;23.95;10.57;;;;;;;11.09;49.18;100519.38;5057590;28;20450;-68
2022/03/30 08:43:27;;;;;;;21.77;11.98;;;;;;;11.06;48.82;100511.75;5065804;28;20045;-66
2022/03/30 08:45:59;;;;;;;23.85;11.65;;;;;;;11.10;49.06;100512.13;5063343;28;20049;-68
2022/03/30 08:48:27;;;;;;;17.27;10.32;;;;;;;11.13;48.99;100513.53;5066258;28;20126;-68
2022/03/30 08:50:57;;;;;;;26.88;11.45;;;;;;;11.12;48.97;100511.88;5065345;28;20115;-68
2022/03/30 08:53:26;;;;;;;24.92;11.68;;;;;;;11.11;49.18;100511.06;5065870;28;20048;-67
2022/03/30 08:55:55;;;;;;;17.98;10.88;;;;;;;11.11;48.97;100507.56;5063431;28;20045;-67
2022/03/30 08:58:24;;;;;;;23.55;11.38;;;;;;;11.12;49.21;100522.63;5060782;28;20053;-67
2022/03/30 09:00:52;;;;;;;20.45;10.65;;;;;;;11.10;49.35;100514.81;5065578;28;20056;-67
2022/03/30 09:03:21;;;;;;;18.63;10.10;;;;;;;11.13;48.88;100516.22;5064671;28;20053;-67
2022/03/30 09:05:49;;;;;;;19.90;10.75;;;;;;;11.11;49.23;100510.25;5067573;28;20513;-68
2022/03/30 09:08:19;;;;;;;19.75;10.88;;;;;;;11.12;49.10;100514.56;5064238;28;20075;-67
2022/03/30 09:10:49;;;;;;;21.42;10.57;;;;;;;11.12;49.43;100507.31;5070356;28;20112;-67
2022/03/30 09:13:18;;;;;;;17.38;9.55;;;;;;;11.15;49.02;100501.47;5064529;28;20037;-69
2022/03/30 09:15:49;;;;;;;22.08;9.70;;;;;;;11.15;49.20;100508.72;5063978;28;20042;-67
2022/03/30 09:18:17;;;;;;;22.23;10.77;;;;;;;11.11;49.32;100497.63;5060432;28;20103;-67
2022/03/30 09:20:47;;;;;;;24.92;11.25;;;;;;;11.16;49.27;100497.75;5068426;28;20041;-68
2022/03/30 09:23:21;;;;;;;23.40;10.87;;;;;;;11.19;49.26;100501.81;5050803;28;20053;-68
2022/03/30 09:25:51;;;;;;;26.60;11.00;;;;;;;11.19;49.44;100496.44;5057468;28;20382;-68
2022/03/30 09:28:21;;;;;;;23.05;11.02;;;;;;;11.23;49.30;100494.94;5052972;28;20048;-69
2022/03/30 09:30:51;;;;;;;19.10;9.68;;;;;;;11.26;49.33;100494.47;5064705;28;20056;-68
2022/03/30 09:33:20;;;;;;;25.33;11.50;;;;;;;11.27;49.18;100490.72;5060683;28;20055;-67
2022/03/30 09:35:48;;;;;;;20.30;10.15;;;;;;;11.28;49.33;100484.28;5064992;28;20154;-70
2022/03/30 09:38:19;;;;;;;18.35;9.98;;;;;;;11.30;49.52;100485.69;5067075;28;20076;-68
2022/03/30 09:40:49;;;;;;;21.55;10.80;;;;;;;11.30;49.56;100484.88;5064618;28;20127;-65
2022/03/30 09:43:20;;;;;;;19.77;10.95;;;;;;;11.31;49.50;100479.25;5071778;28;20052;-70
2022/03/30 09:45:52;;;;;;;21.83;9.65;;;;;;;11.30;49.50;100471.41;5060489;28;20055;-69
2022/03/30 09:48:23;;;;;;;22.38;10.02;;;;;;;11.31;49.66;100473.06;5063840;28;20049;-69
2022/03/30 09:50:53;;;;;;;16.23;9.52;;;;;;;11.34;49.54;100469.88;5066002;28;20080;-69
2022/03/30 09:53:23;;;;;;;23.52;9.82;;;;;;;11.35;49.66;100464.28;5063271;28;20064;-69
2022/03/30 09:55:56;;;;;;;22.77;10.20;;;;;;;11.38;49.69;100462.97;5054387;28;20593;-69
2022/03/30 09:58:26;;;;;;;22.25;9.90;;;;;;;11.41;49.78;100459.81;5057558;28;20104;-68
2022/03/30 10:01:10;;;;;;;23.55;11.18;;;;;;;11.45;49.86;100458.28;5064041;28;20107;-68
2022/03/30 10:03:41;;;;;;;22.42;9.95;;;;;;;11.48;49.86;100465.06;5064396;28;20051;-69
2022/03/30 10:06:11;;;;;;;18.13;9.48;;;;;;;11.50;49.76;100461.09;5064321;28;20359;-70
2022/03/30 10:08:41;;;;;;;17.42;9.88;;;;;;;11.47;49.89;100448.09;5062093;28;20075;-69
2022/03/30 10:11:10;;;;;;;18.77;9.38;;;;;;;11.57;49.87;100459.09;5063273;28;20068;-69
2022/03/30 10:13:38;;;;;;;18.23;9.60;;;;;;;11.59;49.66;100454.28;5063728;28;20053;-68
2022/03/30 10:16:29;;;;;;;14.25;8.82;;;;;;;11.60;49.96;100447.03;5070070;28;20062;-68
2022/03/30 10:18:58;;;;;;;19.88;9.00;;;;;;;11.65;49.71;100449.81;5066026;28;20094;-67
2022/03/30 10:21:31;;;;;;;17.60;9.70;;;;;;;11.67;49.72;100445.84;5066741;28;20462;-68
2022/03/30 10:24:14;;;;;;;20.23;9.98;;;;;;;11.64;49.62;100435.53;5058532;28;20275;-62
2022/03/30 10:26:52;;;;;;;18.17;10.27;;;;;;;11.70;49.59;100439.97;5059182;28;20063;-63
2022/03/30 10:29:23;;;;;;;22.35;10.80;;;;;;;11.70;49.57;100442.66;5063027;28;20057;-62
2022/03/30 10:32:13;;;;;;;26.60;11.38;;;;;;;11.70;48.81;100434.59;5073910;28;20075;-62
2022/03/30 10:34:48;;;;;;;18.40;10.40;;;;;;;11.70;49.02;100436.47;5063725;28;20049;-62
2022/03/30 10:37:24;;;;;;;19.67;9.95;;;;;;;11.74;49.06;100434.94;5067180;28;20097;-62
2022/03/30 10:40:10;;;;;;;15.65;10.23;;;;;;;11.76;49.10;100424.72;5059724;28;20060;-63
2022/03/30 10:42:58;;;;;;;17.42;9.80;;;;;;;11.81;49.00;100426.75;5062170;28;20147;-66
2022/03/30 10:45:30;;;;;;;15.70;9.93;;;;;;;11.84;48.97;100423.56;5061084;28;20131;-66
2022/03/30 10:48:12;;;;;;;18.23;9.10;;;;;;;11.88;48.91;100420.16;5057808;28;20095;-67
2022/03/30 10:50:43;;;;;;;19.13;10.23;;;;;;;11.92;49.14;100420.50;5059616;28;20080;-66
2022/03/30 10:53:41;;;;;;;17.10;9.30;;;;;;;11.93;49.05;100403.28;5063111;28;20049;-66
2022/03/30 10:56:33;;;;;;;15.18;9.57;;;;;;;12.01;49.00;100409.09;5061626;28;20045;-68
2022/03/30 10:59:16;;;;;;;16.15;9.32;;;;;;;12.05;49.04;100404.03;5067936;28;20394;-68
2022/03/30 11:01:46;;;;;;;16.33;9.23;;;;;;;12.04;48.53;100400.53;5062521;28;20068;-66
2022/03/30 11:04:22;;;;;;;23.30;9.90;;;;;;;12.07;48.48;100393.84;5063692;28;20053;-66
2022/03/30 11:07:40;;;;;;;19.00;9.85;;;;;;;12.11;48.68;100397.69;5066932;28;20071;-67
2022/03/30 11:10:23;;;;;;;20.50;11.27;;;;;;;12.17;48.73;100391.28;5053129;28;20068;-66
2022/03/30 11:13:11;;;;;;;18.52;9.50;;;;;;;12.22;48.63;100385.16;5054891;28;20041;-67
2022/03/30 11:16:16;;;;;;;19.17;10.23;;;;;;;12.25;48.31;100380.09;5052698;28;20053;-69
2022/03/30 11:18:58;;;;;;;19.60;10.15;;;;;;;12.27;48.32;100380.69;5055903;28;20049;-68
2022/03/30 11:21:27;;;;;;;19.50;10.27;;;;;;;12.29;48.77;100369.66;5057603;28;20085;-66
2022/03/30 11:24:18;;;;;;;19.02;9.43;;;;;;;12.34;48.72;100370.56;5058190;28;20052;-62
2022/03/30 11:27:20;;;;;;;19.40;10.23;;;;;;;12.37;48.54;100370.06;5056858;28;20140;-62
2022/03/30 11:30:12;;;;;;;18.83;9.82;;;;;;;12.41;48.61;100373.09;5056353;28;20609;-62
2022/03/30 11:33:02;;;;;;;18.98;11.18;;;;;;;12.42;48.66;100368.50;5055319;28;20650;-62